sensor_id;sensor_type;location;lat;lon;timestamp;pressure;altitude;pressure_sealevel;temperature;humidity
19761;BME280;10039;42.632;23.408;2023-01-29T00:00:21;95077.22;;;1.07;77.80
19761;BME280;10039;42.632;23.408;2023-01-29T00:02:49;95071.38;;;1.17;77.67
19761;BME280;10039;42.632;23.408;2023-01-29T00:05:14;95065.56;;;1.27;77.52
19761;BME280;10039;42.632;23.408;2023-01-29T00:07:40;95064.72;;;1.42;77.17
19761;BME280;10039;42.632;23.408;2023-01-29T00:10:07;95097.34;;;1.41;77.32
19761;BME280;10039;42.632;23.408;2023-01-29T00:12:32;95059.09;;;1.02;77.57
19761;BME280;10039;42.632;23.408;2023-01-29T00:14:58;95062.69;;;0.94;78.06
19761;BME280;10039;42.632;23.408;2023-01-29T00:17:24;95062.75;;;0.98;77.66
19761;BME280;10039;42.632;23.408;2023-01-29T00:19:49;95083.66;;;1.32;77.25
19761;BME280;10039;42.632;23.408;2023-01-29T00:22:15;95070.28;;;1.18;76.99
19761;BME280;10039;42.632;23.408;2023-01-29T00:24:40;95088.50;;;1.30;77.13
19761;BME280;10039;42.632;23.408;2023-01-29T00:27:08;95081.31;;;1.27;77.10
19761;BME280;10039;42.632;23.408;2023-01-29T00:29:34;95071.50;;;1.24;76.65
19761;BME280;10039;42.632;23.408;2023-01-29T00:32:00;95076.06;;;1.27;76.89
19761;BME280;10039;42.632;23.408;2023-01-29T00:34:25;95080.50;;;1.23;76.83
19761;BME280;10039;42.632;23.408;2023-01-29T00:36:51;95092.19;;;1.25;76.85
19761;BME280;10039;42.632;23.408;2023-01-29T00:39:19;95120.38;;;1.47;77.31
19761;BME280;10039;42.632;23.408;2023-01-29T00:41:52;95103.72;;;1.40;77.06
19761;BME280;10039;42.632;23.408;2023-01-29T00:44:36;95114.28;;;1.43;76.71
19761;BME280;10039;42.632;23.408;2023-01-29T00:47:20;95072.47;;;1.16;76.59
19761;BME280;10039;42.632;23.408;2023-01-29T00:50:08;95092.56;;;1.46;76.86
19761;BME280;10039;42.632;23.408;2023-01-29T00:52:34;95094.38;;;1.42;76.27
19761;BME280;10039;42.632;23.408;2023-01-29T00:55:06;95108.78;;;1.52;76.58
19761;BME280;10039;42.632;23.408;2023-01-29T00:57:34;95072.38;;;1.31;76.20
19761;BME280;10039;42.632;23.408;2023-01-29T01:00:00;95081.34;;;1.49;75.92
19761;BME280;10039;42.632;23.408;2023-01-29T01:02:27;95091.06;;;1.68;75.78
19761;BME280;10039;42.632;23.408;2023-01-29T01:05:13;95099.94;;;1.82;75.36
19761;BME280;10039;42.632;23.408;2023-01-29T01:07:43;95089.34;;;1.34;75.51
19761;BME280;10039;42.632;23.408;2023-01-29T01:10:16;95075.25;;;1.23;76.47
19761;BME280;10039;42.632;23.408;2023-01-29T01:12:55;95075.81;;;1.13;76.67
19761;BME280;10039;42.632;23.408;2023-01-29T01:15:23;95093.22;;;1.40;76.89
19761;BME280;10039;42.632;23.408;2023-01-29T01:17:54;95071.22;;;1.29;76.86
19761;BME280;10039;42.632;23.408;2023-01-29T01:20:22;95067.91;;;1.32;77.17
19761;BME280;10039;42.632;23.408;2023-01-29T01:22:47;95094.66;;;1.60;77.08
19761;BME280;10039;42.632;23.408;2023-01-29T01:25:13;95110.31;;;1.75;76.97
19761;BME280;10039;42.632;23.408;2023-01-29T01:27:40;95094.09;;;1.70;77.12
19761;BME280;10039;42.632;23.408;2023-01-29T01:30:13;95059.31;;;1.35;77.06
19761;BME280;10039;42.632;23.408;2023-01-29T01:32:43;95057.94;;;1.41;77.43
19761;BME280;10039;42.632;23.408;2023-01-29T01:35:10;95066.97;;;1.43;77.07
19761;BME280;10039;42.632;23.408;2023-01-29T01:37:36;95076.50;;;1.51;77.25
19761;BME280;10039;42.632;23.408;2023-01-29T01:40:06;95065.28;;;1.32;77.06
19761;BME280;10039;42.632;23.408;2023-01-29T01:42:56;95110.19;;;1.46;78.05
19761;BME280;10039;42.632;23.408;2023-01-29T01:45:30;95075.69;;;1.06;78.30
19761;BME280;10039;42.632;23.408;2023-01-29T01:52:58;95081.78;;;1.10;78.56
19761;BME280;10039;42.632;23.408;2023-01-29T01:55:26;95089.31;;;1.11;78.76
19761;BME280;10039;42.632;23.408;2023-01-29T01:58:10;95085.19;;;1.14;78.92
19761;BME280;10039;42.632;23.408;2023-01-29T02:00:38;95114.50;;;1.35;78.84
19761;BME280;10039;42.632;23.408;2023-01-29T02:03:05;95074.38;;;1.15;78.40
19761;BME280;10039;42.632;23.408;2023-01-29T02:05:52;95101.69;;;1.33;78.56
19761;BME280;10039;42.632;23.408;2023-01-29T02:09:19;95094.31;;;1.20;78.31
19761;BME280;10039;42.632;23.408;2023-01-29T02:11:56;95118.06;;;1.23;78.59
19761;BME280;10039;42.632;23.408;2023-01-29T02:14:25;95129.31;;;1.24;79.11
19761;BME280;10039;42.632;23.408;2023-01-29T02:16:51;95093.25;;;1.02;79.78
19761;BME280;10039;42.632;23.408;2023-01-29T02:19:28;95126.34;;;1.25;79.92
19761;BME280;10039;42.632;23.408;2023-01-29T02:24:44;95138.91;;;1.35;79.74
19761;BME280;10039;42.632;23.408;2023-01-29T02:30:35;95106.59;;;1.12;79.33
19761;BME280;10039;42.632;23.408;2023-01-29T02:36:25;95127.38;;;1.21;80.08
19761;BME280;10039;42.632;23.408;2023-01-29T02:38:59;95149.78;;;1.34;79.90
19761;BME280;10039;42.632;23.408;2023-01-29T02:41:33;95130.34;;;1.01;80.44
19761;BME280;10039;42.632;23.408;2023-01-29T02:44:22;95152.69;;;1.29;80.24
19761;BME280;10039;42.632;23.408;2023-01-29T02:46:56;95105.34;;;0.88;80.58
19761;BME280;10039;42.632;23.408;2023-01-29T02:52:28;95140.69;;;1.09;80.83
19761;BME280;10039;42.632;23.408;2023-01-29T02:55:47;95118.13;;;0.89;80.96
19761;BME280;10039;42.632;23.408;2023-01-29T02:58:21;95166.19;;;1.27;80.89
19761;BME280;10039;42.632;23.408;2023-01-29T03:00:51;95132.50;;;0.95;81.28
19761;BME280;10039;42.632;23.408;2023-01-29T03:03:24;95140.94;;;1.04;81.58
19761;BME280;10039;42.632;23.408;2023-01-29T03:06:04;95138.94;;;0.98;81.65
19761;BME280;10039;42.632;23.408;2023-01-29T03:08:40;95120.47;;;0.94;81.76
19761;BME280;10039;42.632;23.408;2023-01-29T03:11:09;95140.53;;;1.02;81.35
19761;BME280;10039;42.632;23.408;2023-01-29T03:13:53;95135.28;;;1.02;81.28
19761;BME280;10039;42.632;23.408;2023-01-29T03:19:09;95115.91;;;0.91;80.98
19761;BME280;10039;42.632;23.408;2023-01-29T03:21:43;95114.41;;;1.09;80.76
19761;BME280;10039;42.632;23.408;2023-01-29T03:24:46;95165.00;;;1.25;81.15
19761;BME280;10039;42.632;23.408;2023-01-29T03:27:38;95145.84;;;1.24;80.85
19761;BME280;10039;42.632;23.408;2023-01-29T03:30:25;95155.41;;;1.13;81.38
19761;BME280;10039;42.632;23.408;2023-01-29T03:33:11;95143.91;;;1.03;81.11
19761;BME280;10039;42.632;23.408;2023-01-29T03:35:49;95133.50;;;1.06;80.87
19761;BME280;10039;42.632;23.408;2023-01-29T03:38:17;95156.41;;;1.28;80.37
19761;BME280;10039;42.632;23.408;2023-01-29T03:40:49;95128.34;;;1.13;80.18
19761;BME280;10039;42.632;23.408;2023-01-29T03:43:30;95134.44;;;1.36;79.50
19761;BME280;10039;42.632;23.408;2023-01-29T03:46:23;95167.66;;;1.66;79.01
19761;BME280;10039;42.632;23.408;2023-01-29T03:51:24;95172.25;;;1.50;79.12
19761;BME280;10039;42.632;23.408;2023-01-29T03:53:58;95167.53;;;1.59;79.28
19761;BME280;10039;42.632;23.408;2023-01-29T03:56:51;95170.91;;;1.60;78.85
19761;BME280;10039;42.632;23.408;2023-01-29T04:02:00;95121.03;;;1.22;78.91
19761;BME280;10039;42.632;23.408;2023-01-29T04:04:30;95125.63;;;1.28;78.62
19761;BME280;10039;42.632;23.408;2023-01-29T04:07:05;95131.63;;;1.25;79.04
19761;BME280;10039;42.632;23.408;2023-01-29T04:12:07;95158.81;;;1.55;78.93
19761;BME280;10039;42.632;23.408;2023-01-29T04:14:35;95129.31;;;1.43;78.85
19761;BME280;10039;42.632;23.408;2023-01-29T04:17:08;95164.03;;;1.74;78.68
19761;BME280;10039;42.632;23.408;2023-01-29T04:19:35;95149.22;;;1.66;78.39
19761;BME280;10039;42.632;23.408;2023-01-29T04:22:22;95140.34;;;1.52;78.41
19761;BME280;10039;42.632;23.408;2023-01-29T04:24:50;95174.78;;;1.66;78.31
19761;BME280;10039;42.632;23.408;2023-01-29T04:27:25;95180.81;;;1.89;78.39
19761;BME280;10039;42.632;23.408;2023-01-29T04:35:30;95181.63;;;1.70;78.84
19761;BME280;10039;42.632;23.408;2023-01-29T04:40:57;95144.72;;;1.44;78.42
19761;BME280;10039;42.632;23.408;2023-01-29T04:43:34;95159.97;;;1.58;78.04
19761;BME280;10039;42.632;23.408;2023-01-29T04:49:36;95161.38;;;1.52;78.27
19761;BME280;10039;42.632;23.408;2023-01-29T04:52:16;95155.59;;;1.43;79.08
19761;BME280;10039;42.632;23.408;2023-01-29T04:57:39;95155.69;;;1.69;77.81
19761;BME280;10039;42.632;23.408;2023-01-29T05:02:40;95146.28;;;1.49;77.57
19761;BME280;10039;42.632;23.408;2023-01-29T05:05:09;95182.53;;;1.59;77.67
19761;BME280;10039;42.632;23.408;2023-01-29T05:07:37;95177.44;;;1.47;77.95
19761;BME280;10039;42.632;23.408;2023-01-29T05:10:06;95175.63;;;1.51;78.54
19761;BME280;10039;42.632;23.408;2023-01-29T05:12:32;95191.66;;;1.65;78.02
19761;BME280;10039;42.632;23.408;2023-01-29T05:15:02;95201.72;;;1.82;77.44
19761;BME280;10039;42.632;23.408;2023-01-29T05:17:30;95168.56;;;1.55;77.53
19761;BME280;10039;42.632;23.408;2023-01-29T05:19:56;95166.06;;;1.62;77.02
19761;BME280;10039;42.632;23.408;2023-01-29T05:22:22;95152.66;;;1.48;76.56
19761;BME280;10039;42.632;23.408;2023-01-29T05:24:48;95170.91;;;1.60;76.95
19761;BME280;10039;42.632;23.408;2023-01-29T05:27:20;95224.09;;;1.91;77.36
19761;BME280;10039;42.632;23.408;2023-01-29T05:30:06;95193.84;;;1.59;77.00
19761;BME280;10039;42.632;23.408;2023-01-29T05:32:32;95174.53;;;1.33;77.70
19761;BME280;10039;42.632;23.408;2023-01-29T05:34:57;95168.38;;;1.44;77.71
19761;BME280;10039;42.632;23.408;2023-01-29T05:37:23;95191.34;;;1.47;77.19
19761;BME280;10039;42.632;23.408;2023-01-29T05:39:49;95175.38;;;1.37;77.36
19761;BME280;10039;42.632;23.408;2023-01-29T05:42:15;95183.13;;;1.30;77.86
19761;BME280;10039;42.632;23.408;2023-01-29T05:44:40;95180.06;;;1.28;78.22
19761;BME280;10039;42.632;23.408;2023-01-29T05:47:06;95178.13;;;1.44;78.33
19761;BME280;10039;42.632;23.408;2023-01-29T05:49:32;95187.88;;;1.43;78.00
19761;BME280;10039;42.632;23.408;2023-01-29T05:51:57;95231.38;;;1.60;78.46
19761;BME280;10039;42.632;23.408;2023-01-29T05:54:23;95201.94;;;1.32;78.84
19761;BME280;10039;42.632;23.408;2023-01-29T05:56:49;95189.19;;;1.15;78.68
19761;BME280;10039;42.632;23.408;2023-01-29T05:59:36;95198.53;;;1.31;78.65
19761;BME280;10039;42.632;23.408;2023-01-29T06:02:01;95204.81;;;1.46;78.66
19761;BME280;10039;42.632;23.408;2023-01-29T06:04:26;95204.13;;;1.49;78.58
19761;BME280;10039;42.632;23.408;2023-01-29T06:06:52;95213.94;;;1.52;78.41
19761;BME280;10039;42.632;23.408;2023-01-29T06:09:18;95204.41;;;1.44;78.09
19761;BME280;10039;42.632;23.408;2023-01-29T06:11:44;95200.97;;;1.40;78.23
19761;BME280;10039;42.632;23.408;2023-01-29T06:14:10;95201.09;;;1.28;78.58
19761;BME280;10039;42.632;23.408;2023-01-29T06:16:35;95208.56;;;1.26;78.62
19761;BME280;10039;42.632;23.408;2023-01-29T06:19:01;95215.47;;;1.15;79.27
19761;BME280;10039;42.632;23.408;2023-01-29T06:21:27;95211.19;;;1.26;79.17
19761;BME280;10039;42.632;23.408;2023-01-29T06:23:53;95239.41;;;1.48;79.01
19761;BME280;10039;42.632;23.408;2023-01-29T06:26:18;95220.16;;;1.44;78.86
19761;BME280;10039;42.632;23.408;2023-01-29T06:28:47;95231.19;;;1.49;78.61
19761;BME280;10039;42.632;23.408;2023-01-29T06:31:13;95227.50;;;1.54;78.56
19761;BME280;10039;42.632;23.408;2023-01-29T06:33:39;95230.88;;;1.73;78.17
19761;BME280;10039;42.632;23.408;2023-01-29T06:36:05;95232.78;;;1.54;78.14
19761;BME280;10039;42.632;23.408;2023-01-29T06:38:30;95254.34;;;1.82;78.26
19761;BME280;10039;42.632;23.408;2023-01-29T06:40:57;95237.34;;;1.38;78.66
19761;BME280;10039;42.632;23.408;2023-01-29T06:43:23;95289.59;;;1.58;79.07
19761;BME280;10039;42.632;23.408;2023-01-29T06:45:50;95233.94;;;1.37;79.54
19761;BME280;10039;42.632;23.408;2023-01-29T06:48:16;95265.63;;;1.63;79.17
19761;BME280;10039;42.632;23.408;2023-01-29T06:50:42;95250.06;;;1.55;79.44
19761;BME280;10039;42.632;23.408;2023-01-29T06:53:08;95252.63;;;1.51;79.14
19761;BME280;10039;42.632;23.408;2023-01-29T06:55:34;95270.69;;;1.72;78.49
19761;BME280;10039;42.632;23.408;2023-01-29T06:58:08;95261.28;;;1.52;78.92
19761;BME280;10039;42.632;23.408;2023-01-29T07:00:34;95252.13;;;1.46;78.89
19761;BME280;10039;42.632;23.408;2023-01-29T07:03:00;95264.41;;;1.57;79.12
19761;BME280;10039;42.632;23.408;2023-01-29T07:05:26;95248.50;;;1.50;79.59
19761;BME280;10039;42.632;23.408;2023-01-29T07:07:51;95262.22;;;1.82;78.90
19761;BME280;10039;42.632;23.408;2023-01-29T07:10:17;95261.56;;;1.66;78.95
19761;BME280;10039;42.632;23.408;2023-01-29T07:12:43;95275.94;;;1.53;79.30
19761;BME280;10039;42.632;23.408;2023-01-29T07:15:09;95245.72;;;1.24;80.05
19761;BME280;10039;42.632;23.408;2023-01-29T07:17:37;95277.47;;;1.54;80.00
19761;BME280;10039;42.632;23.408;2023-01-29T07:20:03;95254.75;;;1.27;80.24
19761;BME280;10039;42.632;23.408;2023-01-29T07:22:28;95279.56;;;1.64;80.52
19761;BME280;10039;42.632;23.408;2023-01-29T07:24:54;95263.53;;;1.34;80.09
19761;BME280;10039;42.632;23.408;2023-01-29T07:27:19;95313.59;;;1.57;80.22
19761;BME280;10039;42.632;23.408;2023-01-29T07:29:45;95273.03;;;1.39;80.63
19761;BME280;10039;42.632;23.408;2023-01-29T07:32:11;95296.16;;;1.68;80.04
19761;BME280;10039;42.632;23.408;2023-01-29T07:34:37;95292.63;;;1.79;79.42
19761;BME280;10039;42.632;23.408;2023-01-29T07:37:02;95316.63;;;1.78;79.48
19761;BME280;10039;42.632;23.408;2023-01-29T07:39:30;95295.16;;;1.76;79.26
19761;BME280;10039;42.632;23.408;2023-01-29T07:41:56;95288.00;;;1.73;79.07
19761;BME280;10039;42.632;23.408;2023-01-29T07:44:21;95279.00;;;1.74;78.97
19761;BME280;10039;42.632;23.408;2023-01-29T07:46:47;95292.78;;;1.86;78.78
19761;BME280;10039;42.632;23.408;2023-01-29T07:49:13;95282.94;;;1.83;78.72
19761;BME280;10039;42.632;23.408;2023-01-29T07:51:39;95285.41;;;1.95;78.86
19761;BME280;10039;42.632;23.408;2023-01-29T07:54:04;95282.78;;;1.76;78.84
19761;BME280;10039;42.632;23.408;2023-01-29T07:56:30;95279.81;;;1.78;78.74
19761;BME280;10039;42.632;23.408;2023-01-29T07:58:55;95303.34;;;1.90;78.55
19761;BME280;10039;42.632;23.408;2023-01-29T08:01:24;95315.41;;;1.72;79.45
19761;BME280;10039;42.632;23.408;2023-01-29T08:03:49;95291.28;;;1.51;79.36
19761;BME280;10039;42.632;23.408;2023-01-29T08:06:15;95346.66;;;1.77;79.74
19761;BME280;10039;42.632;23.408;2023-01-29T08:08:41;95310.97;;;1.57;80.19
19761;BME280;10039;42.632;23.408;2023-01-29T08:11:07;95292.91;;;1.55;79.96
19761;BME280;10039;42.632;23.408;2023-01-29T08:13:33;95322.44;;;1.87;79.48
19761;BME280;10039;42.632;23.408;2023-01-29T08:16:02;95313.88;;;1.90;79.27
19761;BME280;10039;42.632;23.408;2023-01-29T08:18:28;95296.50;;;1.85;78.68
19761;BME280;10039;42.632;23.408;2023-01-29T08:21:02;95300.09;;;1.77;78.57
19761;BME280;10039;42.632;23.408;2023-01-29T08:23:28;95296.41;;;1.82;78.43
19761;BME280;10039;42.632;23.408;2023-01-29T08:25:54;95294.06;;;1.77;78.04
19761;BME280;10039;42.632;23.408;2023-01-29T08:28:20;95309.44;;;1.94;77.69
19761;BME280;10039;42.632;23.408;2023-01-29T08:30:45;95300.31;;;1.88;77.75
19761;BME280;10039;42.632;23.408;2023-01-29T08:33:11;95325.84;;;1.87;78.56
19761;BME280;10039;42.632;23.408;2023-01-29T08:35:38;95311.16;;;1.67;78.71
19761;BME280;10039;42.632;23.408;2023-01-29T08:38:05;95302.66;;;1.55;78.56
19761;BME280;10039;42.632;23.408;2023-01-29T08:40:32;95300.97;;;1.47;78.42
19761;BME280;10039;42.632;23.408;2023-01-29T08:43:03;95299.69;;;1.56;78.51
19761;BME280;10039;42.632;23.408;2023-01-29T08:45:29;95339.63;;;2.00;78.75
19761;BME280;10039;42.632;23.408;2023-01-29T08:47:55;95330.53;;;1.97;78.21
19761;BME280;10039;42.632;23.408;2023-01-29T08:50:20;95362.22;;;2.01;78.14
19761;BME280;10039;42.632;23.408;2023-01-29T08:52:46;95342.59;;;1.79;78.17
19761;BME280;10039;42.632;23.408;2023-01-29T08:55:12;95316.78;;;1.66;78.09
19761;BME280;10039;42.632;23.408;2023-01-29T08:57:38;95338.50;;;1.82;77.59
19761;BME280;10039;42.632;23.408;2023-01-29T09:00:05;95350.63;;;2.05;77.61
19761;BME280;10039;42.632;23.408;2023-01-29T09:02:31;95339.91;;;1.95;77.60
19761;BME280;10039;42.632;23.408;2023-01-29T09:04:56;95322.03;;;1.85;77.43
19761;BME280;10039;42.632;23.408;2023-01-29T09:07:22;95341.13;;;1.82;77.33
19761;BME280;10039;42.632;23.408;2023-01-29T09:09:48;95337.56;;;1.71;76.74
19761;BME280;10039;42.632;23.408;2023-01-29T09:12:13;95354.91;;;1.75;77.09
19761;BME280;10039;42.632;23.408;2023-01-29T09:14:39;95346.50;;;1.85;77.64
19761;BME280;10039;42.632;23.408;2023-01-29T09:17:05;95348.88;;;2.13;77.19
19761;BME280;10039;42.632;23.408;2023-01-29T09:19:30;95316.84;;;1.88;76.38
19761;BME280;10039;42.632;23.408;2023-01-29T09:21:56;95328.81;;;1.86;76.89
19761;BME280;10039;42.632;23.408;2023-01-29T09:24:21;95324.06;;;1.91;76.13
19761;BME280;10039;42.632;23.408;2023-01-29T09:26:48;95336.41;;;2.10;76.57
19761;BME280;10039;42.632;23.408;2023-01-29T09:29:14;95352.13;;;2.25;76.37
19761;BME280;10039;42.632;23.408;2023-01-29T09:31:39;95333.00;;;2.06;75.83
19761;BME280;10039;42.632;23.408;2023-01-29T09:34:05;95333.78;;;2.10;76.28
19761;BME280;10039;42.632;23.408;2023-01-29T09:36:30;95327.00;;;2.09;75.62
19761;BME280;10039;42.632;23.408;2023-01-29T09:38:56;95331.38;;;2.01;75.93
19761;BME280;10039;42.632;23.408;2023-01-29T09:44:58;95319.41;;;1.85;76.55
19761;BME280;10039;42.632;23.408;2023-01-29T09:47:27;95318.72;;;2.07;76.53
19761;BME280;10039;42.632;23.408;2023-01-29T09:52:45;95331.38;;;2.01;76.00
19761;BME280;10039;42.632;23.408;2023-01-29T09:55:24;95359.00;;;2.29;75.68
19761;BME280;10039;42.632;23.408;2023-01-29T09:58:04;95343.84;;;2.23;76.03
19761;BME280;10039;42.632;23.408;2023-01-29T10:12:18;95339.22;;;1.98;77.20
19761;BME280;10039;42.632;23.408;2023-01-29T10:31:27;95285.56;;;1.64;76.81
19761;BME280;10039;42.632;23.408;2023-01-29T10:45:06;95282.44;;;1.78;76.92
19761;BME280;10039;42.632;23.408;2023-01-29T10:58:38;95270.41;;;1.58;76.93
19761;BME280;10039;42.632;23.408;2023-01-29T11:01:13;95271.09;;;1.55;77.47
19761;BME280;10039;42.632;23.408;2023-01-29T11:03:43;95285.47;;;1.80;77.58
19761;BME280;10039;42.632;23.408;2023-01-29T11:06:20;95268.34;;;1.67;77.24
19761;BME280;10039;42.632;23.408;2023-01-29T11:09:31;95287.84;;;1.85;77.27
19761;BME280;10039;42.632;23.408;2023-01-29T11:12:14;95258.50;;;1.64;76.97
19761;BME280;10039;42.632;23.408;2023-01-29T11:14:54;95304.88;;;1.91;77.18
19761;BME280;10039;42.632;23.408;2023-01-29T11:17:24;95274.53;;;1.78;76.82
19761;BME280;10039;42.632;23.408;2023-01-29T11:19:52;95278.00;;;1.82;76.98
19761;BME280;10039;42.632;23.408;2023-01-29T11:22:26;95255.19;;;1.67;77.08
19761;BME280;10039;42.632;23.408;2023-01-29T11:25:17;95297.53;;;2.00;77.28
19761;BME280;10039;42.632;23.408;2023-01-29T11:27:52;95251.47;;;1.68;77.14
19761;BME280;10039;42.632;23.408;2023-01-29T11:30:31;95261.19;;;1.86;76.90
19761;BME280;10039;42.632;23.408;2023-01-29T11:33:18;95282.34;;;2.12;76.72
19761;BME280;10039;42.632;23.408;2023-01-29T11:35:48;95246.16;;;1.87;77.09
19761;BME280;10039;42.632;23.408;2023-01-29T11:58:56;95223.47;;;1.79;76.96
19761;BME280;10039;42.632;23.408;2023-01-29T12:01:40;95248.47;;;2.11;76.95
19761;BME280;10039;42.632;23.408;2023-01-29T12:04:36;95231.06;;;1.84;76.51
19761;BME280;10039;42.632;23.408;2023-01-29T12:07:14;95241.28;;;2.08;76.48
19761;BME280;10039;42.632;23.408;2023-01-29T12:12:33;95263.81;;;2.27;76.30
19761;BME280;10039;42.632;23.408;2023-01-29T12:15:20;95240.47;;;2.04;76.35
19761;BME280;10039;42.632;23.408;2023-01-29T12:17:55;95220.75;;;1.94;76.43
19761;BME280;10039;42.632;23.408;2023-01-29T12:20:47;95209.59;;;2.01;76.70
19761;BME280;10039;42.632;23.408;2023-01-29T12:23:31;95241.41;;;2.15;76.48
19761;BME280;10039;42.632;23.408;2023-01-29T12:32:06;95211.75;;;1.95;75.21
19761;BME280;10039;42.632;23.408;2023-01-29T12:35:05;95251.47;;;2.31;76.40
19761;BME280;10039;42.632;23.408;2023-01-29T12:43:30;95221.22;;;2.00;75.74
19761;BME280;10039;42.632;23.408;2023-01-29T12:46:07;95223.28;;;1.87;76.36
19761;BME280;10039;42.632;23.408;2023-01-29T12:48:42;95218.59;;;2.00;75.96
19761;BME280;10039;42.632;23.408;2023-01-29T12:51:24;95215.16;;;1.96;75.85
19761;BME280;10039;42.632;23.408;2023-01-29T12:54:06;95220.03;;;1.97;75.90
19761;BME280;10039;42.632;23.408;2023-01-29T13:07:22;95248.56;;;2.36;74.90
19761;BME280;10039;42.632;23.408;2023-01-29T13:10:04;95219.34;;;2.00;75.17
19761;BME280;10039;42.632;23.408;2023-01-29T13:15:38;95220.94;;;2.05;75.33
19761;BME280;10039;42.632;23.408;2023-01-29T13:18:44;95250.28;;;2.29;75.62
19761;BME280;10039;42.632;23.408;2023-01-29T13:26:49;95230.94;;;1.96;75.89
19761;BME280;10039;42.632;23.408;2023-01-29T13:29:28;95212.56;;;1.99;75.30
19761;BME280;10039;42.632;23.408;2023-01-29T13:32:07;95245.56;;;2.16;75.57
19761;BME280;10039;42.632;23.408;2023-01-29T13:34:49;95234.31;;;1.96;75.76
19761;BME280;10039;42.632;23.408;2023-01-29T13:37:38;95246.09;;;2.24;75.33
19761;BME280;10039;42.632;23.408;2023-01-29T13:40:24;95257.25;;;2.40;75.45
19761;BME280;10039;42.632;23.408;2023-01-29T13:43:20;95238.47;;;2.19;75.43
19761;BME280;10039;42.632;23.408;2023-01-29T13:48:32;95232.41;;;2.38;75.03
19761;BME280;10039;42.632;23.408;2023-01-29T13:54:16;95248.72;;;2.47;74.42
19761;BME280;10039;42.632;23.408;2023-01-29T13:56:59;95249.09;;;2.23;74.36
19761;BME280;10039;42.632;23.408;2023-01-29T13:59:52;95278.56;;;2.54;74.29
19761;BME280;10039;42.632;23.408;2023-01-29T14:02:26;95272.97;;;2.15;74.36
19761;BME280;10039;42.632;23.408;2023-01-29T14:08:04;95242.16;;;1.93;75.34
19761;BME280;10039;42.632;23.408;2023-01-29T14:10:34;95248.88;;;2.13;74.88
19761;BME280;10039;42.632;23.408;2023-01-29T14:18:25;95273.56;;;2.05;74.21
19761;BME280;10039;42.632;23.408;2023-01-29T14:20:56;95249.56;;;1.87;74.90
19761;BME280;10039;42.632;23.408;2023-01-29T14:29:06;95284.84;;;2.05;74.42
19761;BME280;10039;42.632;23.408;2023-01-29T14:31:43;95257.97;;;1.96;74.42
19761;BME280;10039;42.632;23.408;2023-01-29T14:34:21;95275.66;;;1.96;74.25
19761;BME280;10039;42.632;23.408;2023-01-29T14:36:50;95296.06;;;2.02;74.31
19761;BME280;10039;42.632;23.408;2023-01-29T14:41:56;95279.56;;;1.64;74.60
19761;BME280;10039;42.632;23.408;2023-01-29T14:49:58;95271.22;;;2.00;73.93
19761;BME280;10039;42.632;23.408;2023-01-29T14:52:41;95290.28;;;2.16;74.37
19761;BME280;10039;42.632;23.408;2023-01-29T14:57:45;95289.88;;;2.14;74.76
19761;BME280;10039;42.632;23.408;2023-01-29T15:00:33;95294.94;;;2.22;74.65
19761;BME280;10039;42.632;23.408;2023-01-29T15:03:18;95280.28;;;2.02;74.42
19761;BME280;10039;42.632;23.408;2023-01-29T15:05:53;95271.78;;;1.90;75.20
19761;BME280;10039;42.632;23.408;2023-01-29T15:08:52;95273.25;;;2.10;75.58
19761;BME280;10039;42.632;23.408;2023-01-29T15:11:29;95292.78;;;2.27;75.28
19761;BME280;10039;42.632;23.408;2023-01-29T15:19:47;95272.56;;;2.13;74.79
19761;BME280;10039;42.632;23.408;2023-01-29T15:22:18;95273.34;;;2.13;74.93
19761;BME280;10039;42.632;23.408;2023-01-29T15:25:14;95268.97;;;2.20;74.99
19761;BME280;10039;42.632;23.408;2023-01-29T15:32:56;95282.53;;;2.22;74.22
19761;BME280;10039;42.632;23.408;2023-01-29T15:35:45;95296.66;;;2.33;74.35
19761;BME280;10039;42.632;23.408;2023-01-29T15:38:23;95280.03;;;2.29;74.40
19761;BME280;10039;42.632;23.408;2023-01-29T15:40:56;95314.38;;;2.36;74.28
19761;BME280;10039;42.632;23.408;2023-01-29T15:43:36;95284.09;;;2.05;74.46
19761;BME280;10039;42.632;23.408;2023-01-29T15:46:19;95282.50;;;2.00;74.54
19761;BME280;10039;42.632;23.408;2023-01-29T15:51:24;95288.13;;;1.99;74.61
19761;BME280;10039;42.632;23.408;2023-01-29T16:04:50;95336.84;;;2.12;75.21
19761;BME280;10039;42.632;23.408;2023-01-29T16:10:13;95336.56;;;2.17;75.87
19761;BME280;10039;42.632;23.408;2023-01-29T16:13:28;95310.97;;;1.95;75.37
19761;BME280;10039;42.632;23.408;2023-01-29T16:18:44;95309.25;;;1.83;75.55
19761;BME280;10039;42.632;23.408;2023-01-29T16:39:47;95305.38;;;1.77;75.30
19761;BME280;10039;42.632;23.408;2023-01-29T19:04:46;95297.16;;;2.65;71.15
